Servet Ana — TCMF7 — position and weather

sailwx.info

Track history (hours):
 
Tides and Currents Weather Stations Pressure Air Temp Water Temp Dewpoint Dewpoint Depression Visibility Wind Speed Wind Dir Waves Ship Positions

Servet Ana

Last reported at 2016-Jul-27 07:14 UTC. Time now 2016-Aug-31 14:23 UTC.
Position S 24°11' W 045°54'.
Warning: this ship's position is 35 days out of date.

Length 179 m; draft 7.6 m.

Type: Cargo ship. MMSI: 271042643.

Date/timePositionNaut miles runAvg speedWind from/ knotsBaromVisibWave heightAir tempDewpointWater temp
2016-Jul-27 07:14S 24°11' W 045°54'913.5
2016-Jul-27 06:33S 24°09' W 046°04'1313.5
2016-Jul-27 05:33S 24°04' W 046°18'6 6.2
2016-Jul-27 04:33S 23°58' W 046°18'2 0.1
2016-Jul-26 12:16S 23°56' W 046°19'0 0.0
2016-Jul-25 23:31S 23°56' W 046°19'5 5.6
2016-Jul-25 22:34S 24°01' W 046°21'3 2.5
2016-Jul-25 21:31S 24°04' W 046°21'0 0.1
2016-Jul-25 20:28S 24°04' W 046°21'0 0.0
2016-Jul-25 19:22S 24°04' W 046°21'0 0.0
2016-Jul-25 18:28S 24°04' W 046°21'0 0.0
2016-Jul-25 17:31S 24°04' W 046°21'0 0.0
2016-Jul-25 16:31S 24°04' W 046°21'0 0.1
2016-Jul-25 15:33S 24°04' W 046°21'7 6.7
2016-Jul-25 14:33S 24°06' W 046°14'1 1.4
2016-Jul-25 13:32S 24°07' W 046°13'0 0.0
2016-Jul-25 12:32S 24°07' W 046°13'0 0.0
2016-Jul-25 11:32S 24°07' W 046°13'0 0.0
2016-Jul-25 10:29S 24°07' W 046°13'0 0.0
2016-Jul-25 09:32S 24°07' W 046°13'0 0.0
2016-Jul-25 08:32S 24°07' W 046°13'0 0.0
2016-Jul-25 07:29S 24°07' W 046°13'0 0.0
2016-Jul-25 06:32S 24°07' W 046°13'0 0.0
2016-Jul-25 05:29S 24°07' W 046°13'0 0.0
2016-Jul-25 04:32S 24°07' W 046°13'0 0.0
2016-Jul-25 03:32S 24°07' W 046°13'0 0.1
2016-Jul-25 02:29S 24°07' W 046°13'0 0.1
2016-Jul-25 01:20S 24°07' W 046°13'0 0.0
2016-Jul-25 00:26S 24°07' W 046°13'0 0.0
2016-Jul-24 23:29S 24°07' W 046°13'0 0.0
2016-Jul-24 22:32S 24°07' W 046°13'0 0.0
2016-Jul-24 21:32S 24°07' W 046°13'0 0.0
2016-Jul-24 20:29S 24°07' W 046°13'0 0.0
2016-Jul-24 19:29S 24°07' W 046°13'0 0.0
2016-Jul-24 18:23S 24°07' W 046°13'0 0.1
2016-Jul-24 17:17S 24°07' W 046°13'0 0.1
2016-Jul-24 16:29S 24°07' W 046°13'0 0.0
2016-Jul-24 15:32S 24°07' W 046°13'0 0.0
2016-Jul-24 14:32S 24°07' W 046°13'0 0.0
2016-Jul-24 13:29S 24°07' W 046°13'0 0.0
2016-Jul-24 12:32S 24°07' W 046°13'0 0.0
2016-Jul-24 11:23S 24°07' W 046°13'0 0.0
2016-Jul-24 10:29S 24°07' W 046°13'0 0.0
2016-Jul-24 09:29S 24°07' W 046°13'0 0.0
2016-Jul-24 08:29S 24°07' W 046°13'0 0.0
2016-Jul-24 07:29S 24°07' W 046°13'0 0.0
2016-Jul-24 06:23S 24°07' W 046°13'0 0.0
2016-Jul-24 05:29S 24°07' W 046°13'0 0.0
2016-Jul-24 04:29S 24°07' W 046°13'0 0.0
2016-Jul-24 03:32S 24°07' W 046°13'0 0.0
2016-Jul-24 02:32S 24°07' W 046°13'0 0.0
2016-Jul-24 01:32S 24°07' W 046°13'0 0.0
2016-Jul-24 00:32S 24°07' W 046°13'0 0.0
2016-Jul-23 23:29S 24°07' W 046°13'0 0.0
2016-Jul-23 22:32S 24°07' W 046°13'1 1.0
2016-Jul-23 21:33S 24°07' W 046°12'  
Track history (hours):
 
Tides and Currents Weather Stations Pressure Air Temp Water Temp Dewpoint Dewpoint Depression Visibility Wind Speed Wind Dir Waves Ship Positions

Servet Ana

Last reported at 2016-Jul-27 07:14 UTC. Time now 2016-Aug-31 14:23 UTC.
Position S 24°11' W 045°54'.
Warning: this ship's position is 35 days out of date.

Length 179 m; draft 7.6 m.

Type: Cargo ship. MMSI: 271042643.

Date/timePositionNaut miles runAvg speedWind from/ knotsBaromVisibWave heightAir tempDewpointWater temp
2016-Jul-27 07:14S 24°11' W 045°54'913.5
2016-Jul-27 06:33S 24°09' W 046°04'1313.5
2016-Jul-27 05:33S 24°04' W 046°18'6 6.2
2016-Jul-27 04:33S 23°58' W 046°18'2 0.1
2016-Jul-26 12:16S 23°56' W 046°19'0 0.0
2016-Jul-25 23:31S 23°56' W 046°19'5 5.6
2016-Jul-25 22:34S 24°01' W 046°21'3 2.5
2016-Jul-25 21:31S 24°04' W 046°21'0 0.1
2016-Jul-25 20:28S 24°04' W 046°21'0 0.0
2016-Jul-25 19:22S 24°04' W 046°21'0 0.0
2016-Jul-25 18:28S 24°04' W 046°21'0 0.0
2016-Jul-25 17:31S 24°04' W 046°21'0 0.0
2016-Jul-25 16:31S 24°04' W 046°21'0 0.1
2016-Jul-25 15:33S 24°04' W 046°21'7 6.7
2016-Jul-25 14:33S 24°06' W 046°14'1 1.4
2016-Jul-25 13:32S 24°07' W 046°13'0 0.0
2016-Jul-25 12:32S 24°07' W 046°13'0 0.0
2016-Jul-25 11:32S 24°07' W 046°13'0 0.0
2016-Jul-25 10:29S 24°07' W 046°13'0 0.0
2016-Jul-25 09:32S 24°07' W 046°13'0 0.0
2016-Jul-25 08:32S 24°07' W 046°13'0 0.0
2016-Jul-25 07:29S 24°07' W 046°13'0 0.0
2016-Jul-25 06:32S 24°07' W 046°13'0 0.0
2016-Jul-25 05:29S 24°07' W 046°13'0 0.0
2016-Jul-25 04:32S 24°07' W 046°13'0 0.0
2016-Jul-25 03:32S 24°07' W 046°13'0 0.1
2016-Jul-25 02:29S 24°07' W 046°13'0 0.1
2016-Jul-25 01:20S 24°07' W 046°13'0 0.0
2016-Jul-25 00:26S 24°07' W 046°13'0 0.0
2016-Jul-24 23:29S 24°07' W 046°13'0 0.0
2016-Jul-24 22:32S 24°07' W 046°13'0 0.0
2016-Jul-24 21:32S 24°07' W 046°13'0 0.0
2016-Jul-24 20:29S 24°07' W 046°13'0 0.0
2016-Jul-24 19:29S 24°07' W 046°13'0 0.0
2016-Jul-24 18:23S 24°07' W 046°13'0 0.1
2016-Jul-24 17:17S 24°07' W 046°13'0 0.1
2016-Jul-24 16:29S 24°07' W 046°13'0 0.0
2016-Jul-24 15:32S 24°07' W 046°13'0 0.0
2016-Jul-24 14:32S 24°07' W 046°13'0 0.0
2016-Jul-24 13:29S 24°07' W 046°13'0 0.0
2016-Jul-24 12:32S 24°07' W 046°13'0 0.0
2016-Jul-24 11:23S 24°07' W 046°13'0 0.0
2016-Jul-24 10:29S 24°07' W 046°13'0 0.0
2016-Jul-24 09:29S 24°07' W 046°13'0 0.0
2016-Jul-24 08:29S 24°07' W 046°13'0 0.0
2016-Jul-24 07:29S 24°07' W 046°13'0 0.0
2016-Jul-24 06:23S 24°07' W 046°13'0 0.0
2016-Jul-24 05:29S 24°07' W 046°13'0 0.0
2016-Jul-24 04:29S 24°07' W 046°13'0 0.0
2016-Jul-24 03:32S 24°07' W 046°13'0 0.0
2016-Jul-24 02:32S 24°07' W 046°13'0 0.0
2016-Jul-24 01:32S 24°07' W 046°13'0 0.0
2016-Jul-24 00:32S 24°07' W 046°13'0 0.0
2016-Jul-23 23:29S 24°07' W 046°13'0 0.0
2016-Jul-23 22:32S 24°07' W 046°13'1 1.0
2016-Jul-23 21:33S 24°07' W 046°12'  

Dump ship's entire track history